Time;durP1;ratioP1;P1;durP2;ratioP2;P2;SDS_P1;SDS_P2;PMS_P1;PMS_P2;Temp;Humidity;BMP_temperature;BMP_pressure;BME280_temperature;BME280_humidity;BME280_pressure;Samples;Min_cycle;Max_cycle;Signal;HPM_P1;HPM_P2
2023/09/09 00:00:50;;;;;;;5.30;2.30;;;;;;;16.77;48.67;99343.39;81059;1291;3052621;-67
2023/09/09 00:03:20;;;;;;;7.00;2.00;;;;;;;16.78;48.55;99343.52;82306;1296;3012856;-69
2023/09/09 00:05:49;;;;;;;5.20;2.00;;;;;;;16.80;48.27;99343.52;81048;1292;3051745;-69
2023/09/09 00:08:16;;;;;;;7.10;2.30;;;;;;;16.79;48.36;99337.42;82335;1292;3013230;-68
2023/09/09 00:10:43;;;;;;;5.70;2.00;;;;;;;16.76;48.45;99338.20;82301;1291;3011652;-67
2023/09/09 00:13:11;;;;;;;13.90;1.90;;;;;;;16.75;48.28;99336.66;81036;1290;3048390;-68
2023/09/09 00:15:38;;;;;;;9.10;2.40;;;;;;;16.72;48.53;99335.53;82330;1292;3012707;-67
2023/09/09 00:18:06;;;;;;;6.10;2.00;;;;;;;16.75;48.67;99335.95;82323;1291;3011137;-67
2023/09/09 00:20:38;;;;;;;9.00;2.40;;;;;;;16.75;48.76;99331.73;81078;1291;3053438;-68
2023/09/09 00:23:08;;;;;;;6.30;1.80;;;;;;;16.71;49.00;99328.52;82272;1295;3011411;-67
2023/09/09 00:25:41;;;;;;;4.60;2.00;;;;;;;16.71;49.38;99331.02;81042;1291;3051289;-68
2023/09/09 00:28:09;;;;;;;;;;;;;;;16.72;49.35;99334.50;82299;1292;3011262;-68
2023/09/09 00:30:37;;;;;;;3.10;1.50;;;;;;;16.66;49.49;99331.48;81058;1291;3048661;-67
2023/09/09 00:33:04;;;;;;;9.20;2.70;;;;;;;16.66;49.95;99326.70;82231;1292;3012333;-67
2023/09/09 00:35:34;;;;;;;7.70;2.30;;;;;;;16.67;50.20;99328.76;82296;1291;3011292;-67
2023/09/09 00:38:02;;;;;;;7.90;2.60;;;;;;;16.69;50.82;99328.02;81056;1291;3052643;-67
2023/09/09 00:40:29;;;;;;;7.00;2.10;;;;;;;16.73;50.80;99323.41;82319;1291;3013532;-67
2023/09/09 00:42:56;;;;;;;6.80;2.90;;;;;;;16.70;51.40;99321.40;82307;1291;3011283;-68
2023/09/09 00:45:25;;;;;;;7.30;2.50;;;;;;;16.72;52.09;99315.88;81035;1292;3048512;-67
2023/09/09 00:47:53;;;;;;;12.10;3.10;;;;;;;16.75;52.45;99316.83;82211;1291;3011412;-68
2023/09/09 00:50:20;;;;;;;10.40;3.00;;;;;;;16.75;52.77;99317.05;82316;1291;3011773;-67
2023/09/09 00:52:48;;;;;;;6.10;3.20;;;;;;;16.72;53.31;99313.95;81066;1292;3052157;-67
2023/09/09 00:55:15;;;;;;;11.20;4.30;;;;;;;16.71;53.95;99309.67;82248;1292;3012992;-67
2023/09/09 00:57:42;;;;;;;7.90;3.10;;;;;;;16.69;54.74;99306.45;82304;1290;3011247;-68
2023/09/09 01:00:10;;;;;;;10.90;3.50;;;;;;;16.71;54.80;99298.00;81054;1291;3026707;-69
2023/09/09 01:02:41;;;;;;;16.80;4.10;;;;;;;16.70;55.08;99304.03;82235;1292;3012755;-72
2023/09/09 01:05:10;;;;;;;10.60;4.40;;;;;;;16.69;55.45;99301.17;80968;1293;3050513;-68
2023/09/09 01:07:48;;;;;;;14.90;4.00;;;;;;;16.65;55.90;99302.20;82309;1291;3012466;-70
2023/09/09 01:10:16;;;;;;;12.90;4.30;;;;;;;16.66;56.15;99300.19;81051;1292;3069044;-71
2023/09/09 01:12:43;;;;;;;14.90;5.10;;;;;;;16.59;56.85;99302.05;82246;1292;3013063;-70
2023/09/09 01:15:11;;;;;;;17.60;5.30;;;;;;;16.59;56.70;99300.45;82306;1292;3011266;-69
2023/09/09 01:17:39;;;;;;;16.40;4.90;;;;;;;16.54;57.19;99305.44;81048;1291;3051806;-69
2023/09/09 01:20:09;;;;;;;11.30;4.80;;;;;;;16.56;57.53;99301.52;82241;1293;3018404;-67
2023/09/09 01:22:38;;;;;;;16.20;5.40;;;;;;;16.55;57.45;99300.04;81807;1291;3011205;-69
2023/09/09 01:25:06;;;;;;;16.40;5.40;;;;;;;16.54;57.64;99301.39;82165;1294;3013049;-69
2023/09/09 01:27:33;;;;;;;21.20;5.70;;;;;;;16.47;57.84;99297.77;82286;1291;3011098;-68
2023/09/09 01:30:03;;;;;;;15.20;5.00;;;;;;;16.45;58.45;99300.73;81051;1290;3056293;-69
2023/09/09 01:32:30;;;;;;;13.80;5.50;;;;;;;16.40;58.76;99288.27;82296;1292;3011202;-68
2023/09/09 01:35:06;;;;;;;15.90;5.70;;;;;;;16.37;59.30;99286.61;81775;1292;3011188;-69
2023/09/09 01:37:33;;;;;;;19.00;5.70;;;;;;;16.38;59.59;99284.40;82305;1292;3011241;-68
2023/09/09 01:40:07;;;;;;;17.10;5.30;;;;;;;16.33;60.29;99286.48;80977;1296;3050667;-69
2023/09/09 01:42:37;;;;;;;22.20;5.50;;;;;;;16.31;60.71;99286.79;81709;1295;3011248;-68
2023/09/09 01:45:04;;;;;;;8.50;4.50;;;;;;;16.30;61.01;99282.13;82264;1293;3012493;-69
2023/09/09 01:47:35;;;;;;;16.30;4.70;;;;;;;16.26;61.29;99284.06;81036;1291;3051846;-68
2023/09/09 01:50:02;;;;;;;13.70;6.00;;;;;;;16.32;60.91;99273.05;82233;1297;3018480;-68
2023/09/09 01:52:29;;;;;;;15.90;5.40;;;;;;;16.25;62.29;99275.96;82285;1291;3011266;-68
2023/09/09 01:54:57;;;;;;;16.50;5.00;;;;;;;16.21;62.66;99269.33;81032;1292;3048859;-69
2023/09/09 01:57:26;;;;;;;17.50;5.00;;;;;;;16.23;62.32;99268.20;82237;1294;3019317;-67
2023/09/09 01:59:54;;;;;;;18.60;5.20;;;;;;;16.17;63.06;99268.71;82213;1293;3011350;-69
2023/09/09 02:02:22;;;;;;;11.80;4.60;;;;;;;16.12;63.60;99265.32;81006;1290;3051064;-68
2023/09/09 02:04:49;;;;;;;12.60;4.80;;;;;;;16.13;63.82;99263.98;82301;1290;3012497;-67
2023/09/09 02:07:16;;;;;;;10.00;4.70;;;;;;;16.13;63.57;99258.34;82236;1290;3011317;-67
2023/09/09 02:09:45;;;;;;;11.20;4.10;;;;;;;16.06;64.06;99264.54;81047;1290;3049961;-67
2023/09/09 02:12:12;;;;;;;14.50;4.50;;;;;;;16.05;64.24;99260.94;82249;1293;3011298;-68
2023/09/09 02:14:39;;;;;;;10.60;4.00;;;;;;;16.04;64.35;99261.00;82293;1292;3011240;-67
2023/09/09 02:17:08;;;;;;;11.90;4.60;;;;;;;16.02;64.39;99251.49;80987;1290;3051038;-68
2023/09/09 02:19:35;;;;;;;10.50;4.90;;;;;;;15.99;64.78;99246.43;82238;1291;3012718;-67
2023/09/09 02:22:02;;;;;;;14.10;4.50;;;;;;;15.94;64.63;99249.54;82283;1291;3011267;-69
2023/09/09 02:24:30;;;;;;;12.10;4.70;;;;;;;15.91;64.59;99246.21;80950;1292;3049777;-68
2023/09/09 02:26:57;;;;;;;13.20;4.30;;;;;;;15.91;65.03;99245.38;82314;1295;3012490;-68
2023/09/09 02:29:24;;;;;;;14.60;4.70;;;;;;;15.86;65.42;99249.72;82360;1289;3011252;-69
2023/09/09 02:31:53;;;;;;;17.00;4.70;;;;;;;15.88;65.07;99246.27;81130;1289;3025087;-69
2023/09/09 02:34:20;;;;;;;10.90;4.60;;;;;;;15.83;65.48;99249.77;82294;1289;3012615;-71
2023/09/09 02:37:08;;;;;;;14.50;5.20;;;;;;;15.82;65.27;99250.14;82378;1289;3011154;-69
2023/09/09 02:39:36;;;;;;;9.90;4.50;;;;;;;15.82;65.19;99242.59;80973;1290;3049445;-70
2023/09/09 02:42:03;;;;;;;13.90;5.30;;;;;;;15.68;65.75;99239.70;82306;1291;3011178;-71
2023/09/09 02:44:30;;;;;;;12.90;5.10;;;;;;;15.68;65.46;99240.27;82366;1289;3010932;-72
2023/09/09 02:46:59;;;;;;;12.80;5.00;;;;;;;15.64;65.63;99242.02;81028;1289;3025649;-70
2023/09/09 02:49:25;;;;;;;14.90;4.50;;;;;;;15.56;65.90;99247.42;82391;1289;3018721;-70
2023/09/09 02:51:52;;;;;;;18.80;5.20;;;;;;;15.52;65.99;99246.17;82357;1289;3011150;-70
2023/09/09 02:54:21;;;;;;;14.90;4.50;;;;;;;15.50;65.82;99247.08;81056;1289;3025705;-70
2023/09/09 02:56:47;;;;;;;15.00;5.00;;;;;;;15.47;65.65;99246.39;82379;1292;3019118;-69
2023/09/09 02:59:15;;;;;;;12.40;4.80;;;;;;;15.47;65.65;99252.08;82275;1291;3011410;-71
2023/09/09 03:01:43;;;;;;;16.10;5.00;;;;;;;15.40;66.10;99258.31;81057;1291;3027052;-70
2023/09/09 03:04:10;;;;;;;13.80;4.90;;;;;;;15.38;66.17;99259.20;82278;1289;3012960;-69
2023/09/09 03:06:37;;;;;;;16.20;5.00;;;;;;;15.37;66.24;99258.35;82365;1289;3011039;-72
2023/09/09 03:09:06;;;;;;;14.40;5.00;;;;;;;15.29;66.36;99262.71;81016;1289;3051644;-71
2023/09/09 03:11:33;;;;;;;11.90;5.00;;;;;;;15.19;66.59;99273.64;82394;1294;3012972;-72
2023/09/09 03:14:00;;;;;;;11.80;5.30;;;;;;;15.06;66.83;99273.78;82263;1289;3011368;-71
2023/09/09 03:16:28;;;;;;;16.70;6.20;;;;;;;15.07;66.55;99274.86;81125;1289;3051223;-70
2023/09/09 03:18:55;;;;;;;15.00;6.40;;;;;;;15.00;66.81;99277.66;82272;1289;3012579;-70
2023/09/09 03:21:21;;;;;;;12.00;5.80;;;;;;;14.97;67.02;99282.00;82278;1289;3011492;-68
2023/09/09 03:23:50;;;;;;;19.00;6.50;;;;;;;15.00;66.52;99275.96;81126;1289;3049474;-69
2023/09/09 03:26:18;;;;;;;14.10;5.00;;;;;;;14.93;66.82;99276.80;82323;1291;3018585;-70
2023/09/09 03:28:46;;;;;;;12.90;5.30;;;;;;;14.89;66.29;99279.24;82248;1292;3011373;-71
2023/09/09 03:31:14;;;;;;;15.50;6.00;;;;;;;14.87;65.88;99279.97;81129;1289;3052485;-70
2023/09/09 03:33:41;;;;;;;18.80;6.60;;;;;;;14.83;66.10;99279.25;82309;1292;3018700;-71
2023/09/09 03:36:08;;;;;;;16.20;7.40;;;;;;;14.79;66.08;99277.59;82263;1289;3011572;-72
2023/09/09 03:38:36;;;;;;;16.40;6.10;;;;;;;14.80;65.45;99281.79;81031;1289;3026622;-71
2023/09/09 03:41:06;;;;;;;17.00;6.80;;;;;;;14.78;65.41;99279.78;82290;1291;3018529;-70
2023/09/09 03:43:36;;;;;;;14.70;5.40;;;;;;;14.76;64.78;99280.50;81838;1292;3011413;-71
2023/09/09 03:46:03;;;;;;;13.20;5.00;;;;;;;14.65;65.54;99288.40;82378;1289;3012970;-71
2023/09/09 03:48:30;;;;;;;12.80;5.80;;;;;;;14.75;65.05;99284.45;82282;1289;3011052;-70
2023/09/09 03:51:02;;;;;;;19.20;5.80;;;;;;;14.61;65.37;99285.35;81000;1289;3049456;-71
2023/09/09 03:53:29;;;;;;;19.40;6.30;;;;;;;14.55;65.26;99286.36;82215;1289;3010984;-71
2023/09/09 03:55:59;;;;;;;15.90;6.30;;;;;;;14.52;65.12;99285.58;81025;1289;3025745;-70
2023/09/09 03:58:26;;;;;;;15.10;6.20;;;;;;;14.45;65.19;99287.31;82352;1294;3011509;-70
2023/09/09 04:01:04;;;;;;;18.30;5.90;;;;;;;14.46;64.51;99287.21;82297;1291;3011355;-71
2023/09/09 04:03:35;;;;;;;15.70;5.80;;;;;;;14.46;63.93;99287.45;81074;1289;3052056;-71
2023/09/09 04:06:06;;;;;;;15.70;5.30;;;;;;;14.51;64.00;99281.95;82250;1289;3011164;-70
2023/09/09 04:08:35;;;;;;;11.20;4.90;;;;;;;14.48;64.36;99285.52;81002;1289;3049275;-69
2023/09/09 04:11:03;;;;;;;14.50;4.40;;;;;;;14.51;63.46;99284.77;82282;1295;3012518;-69
2023/09/09 04:13:30;;;;;;;10.20;4.60;;;;;;;14.49;63.00;99287.38;82270;1295;3011219;-68
2023/09/09 04:15:58;;;;;;;12.90;4.60;;;;;;;14.52;62.98;99287.09;81110;1292;3053367;-70
2023/09/09 04:18:27;;;;;;;11.10;4.60;;;;;;;14.57;62.51;99288.14;82289;1295;3011184;-69
2023/09/09 04:20:53;;;;;;;8.60;4.00;;;;;;;14.60;62.22;99285.09;82279;1289;3011274;-69
2023/09/09 04:23:21;;;;;;;7.10;3.10;;;;;;;14.52;62.35;99291.74;81080;1289;3048116;-69
2023/09/09 04:25:48;;;;;;;8.00;3.90;;;;;;;14.48;62.29;99287.82;82336;1289;3018777;-67
2023/09/09 04:28:15;;;;;;;9.30;3.20;;;;;;;14.50;62.40;99287.64;82199;1292;3011419;-70
2023/09/09 04:30:46;;;;;;;8.40;3.90;;;;;;;14.47;62.24;99280.33;80916;1294;3052410;-69
2023/09/09 04:33:14;;;;;;;7.00;3.50;;;;;;;14.48;62.03;99281.97;82192;1292;3011678;-68
2023/09/09 04:35:45;;;;;;;11.80;3.70;;;;;;;14.54;62.50;99281.66;80982;1291;3049668;-69
2023/09/09 04:38:12;;;;;;;10.10;3.40;;;;;;;14.50;62.21;99278.63;82213;1292;3012498;-69
2023/09/09 04:40:40;;;;;;;7.40;3.30;;;;;;;14.50;61.89;99282.88;82190;1292;3011404;-68
2023/09/09 04:43:09;;;;;;;7.20;3.50;;;;;;;14.58;61.85;99284.31;80932;1292;3049959;-68
2023/09/09 04:45:37;;;;;;;9.00;3.50;;;;;;;14.60;61.83;99284.77;82260;1291;3013392;-69
2023/09/09 04:48:05;;;;;;;11.90;3.90;;;;;;;14.66;61.57;99287.61;82272;1291;3011403;-68
2023/09/09 04:50:33;;;;;;;7.20;3.10;;;;;;;14.71;61.40;99288.70;80975;1292;3051686;-69
2023/09/09 04:53:02;;;;;;;10.90;3.30;;;;;;;14.70;61.44;99291.67;82259;1292;3013116;-68
2023/09/09 04:55:29;;;;;;;7.80;2.90;;;;;;;14.67;61.11;99293.35;82246;1291;3011184;-68
2023/09/09 04:57:57;;;;;;;6.40;3.40;;;;;;;14.67;61.50;99287.18;80951;1291;3049763;-68
2023/09/09 05:00:24;;;;;;;9.50;3.50;;;;;;;14.69;61.45;99286.92;82289;1291;3018339;-69
2023/09/09 05:02:51;;;;;;;11.80;3.80;;;;;;;14.68;61.31;99289.08;82269;1291;3011415;-69
2023/09/09 05:05:20;;;;;;;13.60;4.10;;;;;;;14.66;61.45;99289.38;80998;1291;3025709;-69
2023/09/09 05:07:47;;;;;;;10.30;3.70;;;;;;;14.77;61.22;99287.98;82264;1291;3013288;-68
2023/09/09 05:10:13;;;;;;;12.60;3.60;;;;;;;14.85;60.96;99290.89;82279;1291;3011339;-69
2023/09/09 05:12:42;;;;;;;13.50;3.50;;;;;;;14.88;61.19;99288.84;80920;1295;3049816;-68
2023/09/09 05:15:10;;;;;;;13.30;3.70;;;;;;;14.85;61.15;99294.18;82292;1291;3012584;-69
2023/09/09 05:17:40;;;;;;;6.80;2.90;;;;;;;14.77;61.46;99288.20;81690;1291;3011225;-69
2023/09/09 05:20:08;;;;;;;13.40;3.70;;;;;;;14.88;61.11;99290.98;82239;1291;3012751;-69
2023/09/09 05:22:34;;;;;;;14.90;3.30;;;;;;;14.89;61.02;99289.48;82256;1291;3011419;-69
2023/09/09 05:25:03;;;;;;;8.80;3.70;;;;;;;14.94;60.99;99288.73;80952;1291;3048142;-69
2023/09/09 05:27:30;;;;;;;8.20;2.90;;;;;;;15.03;60.69;99285.70;82221;1291;3012749;-70
2023/09/09 05:29:57;;;;;;;10.10;3.70;;;;;;;15.04;60.73;99280.64;82291;1291;3011526;-69
2023/09/09 05:32:25;;;;;;;13.40;3.30;;;;;;;15.03;60.72;99286.39;81026;1290;3052846;-69
2023/09/09 05:34:53;;;;;;;9.70;3.40;;;;;;;15.14;60.80;99283.55;82246;1291;3012872;-69
2023/09/09 05:37:20;;;;;;;10.70;4.00;;;;;;;15.28;60.53;99280.11;82262;1291;3011311;-69
2023/09/09 05:39:48;;;;;;;12.60;4.00;;;;;;;15.40;60.14;99280.34;80995;1292;3047963;-69
2023/09/09 05:42:16;;;;;;;9.10;3.20;;;;;;;15.36;59.72;99281.56;82266;1291;3013270;-69
2023/09/09 05:44:43;;;;;;;10.80;3.40;;;;;;;15.42;59.92;99282.00;82226;1291;3011403;-69
2023/09/09 05:47:11;;;;;;;8.10;3.00;;;;;;;15.53;59.77;99289.01;80969;1291;3052452;-68
2023/09/09 05:49:38;;;;;;;10.40;3.40;;;;;;;15.50;59.85;99283.55;82290;1291;3014079;-70
2023/09/09 05:52:05;;;;;;;9.70;3.60;;;;;;;15.62;59.30;99283.83;82210;1290;3011404;-69
2023/09/09 05:54:33;;;;;;;16.30;3.60;;;;;;;15.68;59.30;99278.91;80966;1292;3025831;-70
2023/09/09 05:57:00;;;;;;;9.10;3.30;;;;;;;15.61;59.55;99283.35;82289;1291;3012794;-69
2023/09/09 05:59:27;;;;;;;11.00;3.60;;;;;;;15.53;59.80;99290.55;82193;1292;3011209;-70
2023/09/09 06:01:55;;;;;;;6.80;3.50;;;;;;;15.41;60.30;99301.77;80984;1291;3052227;-69
2023/09/09 06:04:22;;;;;;;7.80;3.20;;;;;;;15.44;60.32;99301.94;82317;1291;3012460;-69
2023/09/09 06:06:49;;;;;;;8.20;3.30;;;;;;;15.49;60.39;99307.02;82239;1291;3012076;-68
2023/09/09 06:09:18;;;;;;;13.70;3.90;;;;;;;15.60;60.28;99310.64;80968;1291;3025619;-70
2023/09/09 06:11:45;;;;;;;10.60;3.80;;;;;;;15.68;60.17;99311.77;82296;1291;3013248;-69
2023/09/09 06:14:12;;;;;;;11.80;3.60;;;;;;;15.80;59.89;99319.22;82213;1291;3011148;-69
2023/09/09 06:16:40;;;;;;;10.10;3.50;;;;;;;15.90;59.64;99316.11;80978;1293;3025939;-69
2023/09/09 06:19:07;;;;;;;9.30;3.80;;;;;;;16.06;59.52;99315.80;82249;1292;3011409;-68
2023/09/09 06:21:34;;;;;;;15.50;3.80;;;;;;;16.15;59.32;99323.66;82230;1290;3011450;-69
2023/09/09 06:24:02;;;;;;;15.00;4.20;;;;;;;16.13;59.39;99328.30;81002;1291;3025760;-70
2023/09/09 06:26:32;;;;;;;8.80;3.40;;;;;;;16.28;59.19;99328.61;82216;1291;3012350;-70
2023/09/09 06:29:01;;;;;;;11.00;3.50;;;;;;;16.39;58.00;99337.48;80990;1291;3052470;-69
2023/09/09 06:31:28;;;;;;;9.90;3.90;;;;;;;16.40;57.90;99336.90;82265;1291;3012337;-69
2023/09/09 06:33:54;;;;;;;6.90;3.30;;;;;;;16.45;57.48;99340.53;82263;1291;3011499;-68
2023/09/09 06:36:22;;;;;;;8.00;3.20;;;;;;;16.51;57.82;99345.02;81002;1291;3026120;-68
2023/09/09 06:38:50;;;;;;;9.70;3.50;;;;;;;16.66;57.56;99345.79;82261;1291;3012469;-68
2023/09/09 06:41:16;;;;;;;9.40;3.90;;;;;;;16.81;57.26;99350.84;82312;1290;3011070;-68
2023/09/09 06:43:44;;;;;;;10.90;3.90;;;;;;;16.92;57.00;99351.11;81041;1290;3026178;-68
2023/09/09 06:46:11;;;;;;;10.10;3.50;;;;;;;17.03;56.77;99353.89;82335;1290;3018299;-68
2023/09/09 06:48:38;;;;;;;11.80;3.60;;;;;;;17.16;56.69;99356.77;82275;1291;3011382;-69
2023/09/09 06:51:06;;;;;;;10.10;3.90;;;;;;;17.35;56.26;99360.04;81024;1291;3025628;-67
2023/09/09 06:53:33;;;;;;;12.00;4.10;;;;;;;17.52;55.78;99366.46;82285;1291;3012571;-67
2023/09/09 06:56:00;;;;;;;8.70;3.50;;;;;;;17.63;55.29;99362.83;82289;1290;3011403;-68
2023/09/09 06:58:28;;;;;;;11.40;3.60;;;;;;;17.76;54.60;99363.26;81052;1291;3026258;-68
2023/09/09 07:00:55;;;;;;;13.60;4.00;;;;;;;17.82;54.19;99364.27;82350;1292;3012772;-69
2023/09/09 07:03:22;;;;;;;10.40;4.00;;;;;;;17.96;53.08;99362.98;82320;1291;3011202;-68
2023/09/09 07:05:50;;;;;;;11.70;3.80;;;;;;;18.10;53.34;99363.08;81015;1292;3056676;-70
2023/09/09 07:08:17;;;;;;;8.40;2.70;;;;;;;18.24;52.83;99363.03;82300;1291;3012690;-69
2023/09/09 07:10:53;;;;;;;9.00;2.80;;;;;;;18.30;52.20;99367.64;82264;1291;3011134;-72
2023/09/09 07:13:22;;;;;;;7.40;2.90;;;;;;;18.39;52.34;99378.85;81001;1294;3051770;-70
2023/09/09 07:15:52;;;;;;;9.90;3.30;;;;;;;18.35;52.45;99377.30;82322;1291;3012628;-67
2023/09/09 07:18:20;;;;;;;12.40;3.00;;;;;;;18.55;52.24;99386.05;81032;1291;3052575;-68
2023/09/09 07:20:48;;;;;;;9.80;2.50;;;;;;;18.60;51.96;99383.94;82308;1290;3012809;-68
2023/09/09 07:23:15;;;;;;;6.20;2.70;;;;;;;18.64;51.67;99382.91;82323;1290;3011636;-69
2023/09/09 07:25:43;;;;;;;6.70;2.10;;;;;;;18.70;51.49;99391.46;81019;1291;3026880;-68
2023/09/09 07:28:11;;;;;;;8.40;2.30;;;;;;;18.78;51.27;99399.45;82339;1290;3017937;-68
2023/09/09 07:30:38;;;;;;;5.40;2.20;;;;;;;18.79;50.82;99404.69;82396;1289;3011183;-71
2023/09/09 07:33:06;;;;;;;11.70;2.20;;;;;;;18.82;50.61;99403.58;81118;1289;3051938;-70
2023/09/09 07:35:35;;;;;;;5.50;2.10;;;;;;;18.90;50.72;99408.27;82351;1289;3012701;-69
2023/09/09 07:38:06;;;;;;;4.80;2.40;;;;;;;18.81;51.17;99412.14;81797;1290;3011452;-70
2023/09/09 07:40:33;;;;;;;6.90;1.90;;;;;;;18.95;50.80;99414.88;82335;1289;3011379;-70
2023/09/09 07:43:00;;;;;;;7.80;2.10;;;;;;;18.99;49.93;99414.30;80034;1291;3028115;-70
2023/09/09 07:45:28;;;;;;;9.40;2.20;;;;;;;19.11;49.76;99415.66;81078;1290;3052463;-71
2023/09/09 07:47:56;;;;;;;6.40;3.00;;;;;;;19.09;49.45;99424.70;82363;1291;3013200;-72
2023/09/09 07:50:23;;;;;;;11.60;2.70;;;;;;;19.11;49.38;99425.77;82380;1289;3011286;-72
2023/09/09 07:52:51;;;;;;;7.80;2.70;;;;;;;19.02;49.90;99428.58;81128;1289;3048612;-71
2023/09/09 07:55:18;;;;;;;10.20;2.90;;;;;;;19.13;49.71;99423.95;82366;1289;3011623;-68
2023/09/09 07:57:45;;;;;;;13.70;2.80;;;;;;;19.23;49.47;99415.73;82358;1289;3011342;-69
2023/09/09 08:00:13;;;;;;;9.50;3.00;;;;;;;19.45;49.00;99416.79;81140;1291;3053106;-71
2023/09/09 08:02:40;;;;;;;5.50;2.70;;;;;;;19.57;48.83;99414.34;82395;1291;3012718;-70
2023/09/09 08:05:07;;;;;;;8.80;2.50;;;;;;;19.75;48.86;99417.20;82393;1289;3011150;-69
2023/09/09 08:07:38;;;;;;;6.90;2.80;;;;;;;19.87;48.38;99411.92;81118;1289;3048758;-73
2023/09/09 08:10:08;;;;;;;13.00;2.90;;;;;;;19.88;48.23;99417.83;82359;1289;3011402;-71
2023/09/09 08:12:37;;;;;;;6.60;2.60;;;;;;;19.86;48.34;99424.52;81096;1289;3049494;-69
2023/09/09 08:15:07;;;;;;;10.10;3.00;;;;;;;19.88;48.26;99417.39;82374;1292;3012924;-71
2023/09/09 08:17:37;;;;;;;9.60;2.90;;;;;;;19.80;48.45;99418.53;81120;1289;3069159;-68
2023/09/09 08:20:07;;;;;;;6.60;2.20;;;;;;;19.67;48.43;99424.59;82419;1291;3013042;-71
2023/09/09 08:22:35;;;;;;;13.20;3.30;;;;;;;19.57;48.36;99429.86;81055;1289;3040583;-71
2023/09/09 08:25:03;;;;;;;9.50;2.70;;;;;;;19.48;48.29;99430.88;82326;1289;3013529;-74
2023/09/09 08:27:30;;;;;;;4.60;1.80;;;;;;;19.59;47.05;99428.88;82344;1289;3011262;-73
2023/09/09 08:29:59;;;;;;;10.20;2.20;;;;;;;19.67;46.29;99431.71;81123;1291;3044385;-72
2023/09/09 08:32:26;;;;;;;4.30;2.20;;;;;;;19.73;46.17;99433.89;82363;1294;3011502;-74
2023/09/09 08:34:54;;;;;;;7.80;2.60;;;;;;;19.84;45.71;99440.45;82338;1290;3011202;-68
2023/09/09 08:37:22;;;;;;;7.00;2.60;;;;;;;19.89;45.75;99437.35;81080;1289;3048978;-71
2023/09/09 08:39:53;;;;;;;11.50;2.90;;;;;;;20.06;45.31;99439.05;82378;1289;3012864;-70
2023/09/09 08:42:45;;;;;;;4.70;2.30;;;;;;;19.97;45.58;99441.45;81103;1291;3053159;-67
2023/09/09 08:45:25;;;;;;;12.90;2.50;;;;;;;19.99;46.27;99438.08;81110;1290;3052114;-69
2023/09/09 08:47:53;;;;;;;9.60;2.90;;;;;;;20.00;46.24;99449.40;81092;1289;3068276;-70
2023/09/09 08:50:20;;;;;;;7.30;2.30;;;;;;;19.86;46.83;99449.14;82280;1289;3012633;-68
2023/09/09 08:52:47;;;;;;;6.00;2.80;;;;;;;19.74;46.50;99453.39;82216;1291;3011476;-68
2023/09/09 08:55:15;;;;;;;7.00;2.50;;;;;;;19.82;46.28;99459.17;80981;1291;3051818;-68
2023/09/09 08:57:42;;;;;;;6.30;2.50;;;;;;;19.77;46.36;99463.05;82251;1294;3012680;-68
2023/09/09 09:00:09;;;;;;;7.70;2.40;;;;;;;19.60;45.85;99466.86;82231;1291;3011503;-68
2023/09/09 09:02:38;;;;;;;7.80;1.80;;;;;;;19.23;45.48;99468.45;81001;1289;3069306;-68
2023/09/09 09:05:05;;;;;;;8.50;1.70;;;;;;;18.87;46.32;99472.44;82381;1289;3011088;-68
2023/09/09 09:07:32;;;;;;;6.80;1.80;;;;;;;19.36;45.81;99473.94;82379;1289;3011102;-68
2023/09/09 09:10:00;;;;;;;6.20;1.80;;;;;;;19.71;45.18;99476.23;80993;1289;3053480;-68
2023/09/09 09:12:30;;;;;;;3.60;1.70;;;;;;;19.73;44.22;99477.11;82353;1291;3018632;-68
2023/09/09 09:15:03;;;;;;;5.00;1.20;;;;;;;19.68;43.70;99484.02;81830;1291;3011151;-67
2023/09/09 09:17:31;;;;;;;;;;;;;;;19.76;43.25;99487.34;82338;1295;3011345;-68
2023/09/09 09:19:59;;;;;;;3.00;1.40;;;;;;;19.98;42.85;99495.69;81110;1291;3026487;-67
2023/09/09 09:22:27;;;;;;;9.30;2.00;;;;;;;19.89;42.89;99491.48;82265;1291;3011292;-67
2023/09/09 09:24:54;;;;;;;4.50;1.60;;;;;;;20.05;42.95;99487.98;82200;1289;3011464;-69
2023/09/09 09:27:22;;;;;;;5.60;1.60;;;;;;;20.35;42.14;99493.52;81088;1290;3052574;-68
2023/09/09 09:29:49;;;;;;;4.80;1.50;;;;;;;20.50;41.03;99488.16;82283;1292;3013185;-68
2023/09/09 09:32:16;;;;;;;3.00;1.30;;;;;;;20.30;40.83;99493.52;82363;1291;3011190;-67
2023/09/09 09:34:44;;;;;;;1.60;1.00;;;;;;;20.45;40.52;99493.75;81064;1291;3069041;-67
2023/09/09 09:37:11;;;;;;;5.20;1.10;;;;;;;20.44;39.76;99495.86;82221;1291;3012572;-70
2023/09/09 09:39:38;;;;;;;7.50;1.30;;;;;;;20.43;39.79;99490.61;82308;1289;3011267;-68
2023/09/09 09:42:06;;;;;;;4.70;1.70;;;;;;;20.14;40.08;99502.94;81034;1289;3025688;-67
2023/09/09 09:44:33;;;;;;;3.30;1.60;;;;;;;20.28;39.91;99503.64;82325;1294;3013171;-68
2023/09/09 09:47:04;;;;;;;8.30;1.70;;;;;;;20.46;39.37;99496.87;82344;1292;3011403;-67
2023/09/09 09:49:40;;;;;;;6.40;1.50;;;;;;;20.43;39.43;99508.09;81093;1289;3067891;-67
2023/09/09 09:52:08;;;;;;;2.40;1.20;;;;;;;20.50;38.93;99514.66;81109;1291;3051288;-68
2023/09/09 09:54:36;;;;;;;2.90;1.20;;;;;;;20.30;38.81;99515.36;82346;1289;3018217;-69
2023/09/09 09:57:04;;;;;;;4.90;1.70;;;;;;;20.50;38.51;99512.67;82362;1289;3011247;-68
2023/09/09 09:59:33;;;;;;;2.80;1.30;;;;;;;20.49;38.12;99515.27;81099;1290;3049950;-67
2023/09/09 10:02:00;;;;;;;2.20;0.90;;;;;;;20.26;37.59;99523.62;82396;1292;3012941;-67
2023/09/09 10:07:24;;;;;;;4.80;0.90;;;;;;;20.41;37.06;99526.71;80316;1304;3013100;-66
2023/09/09 10:09:55;;;;;;;1.60;0.80;;;;;;;20.49;36.34;99537.89;79301;1307;3014383;-67
2023/09/09 10:12:29;;;;;;;4.40;1.20;;;;;;;20.62;35.67;99539.05;78097;1302;3053608;-68
2023/09/09 10:14:56;;;;;;;4.20;0.80;;;;;;;20.83;35.56;99526.23;79443;1303;3011581;-68
2023/09/09 10:17:24;;;;;;;5.10;1.10;;;;;;;21.02;34.74;99521.95;78286;1304;3068159;-68
2023/09/09 10:19:50;;;;;;;5.70;0.90;;;;;;;20.95;34.26;99525.36;77197;1300;3012862;-68
2023/09/09 10:22:17;;;;;;;3.20;1.10;;;;;;;20.99;34.86;99530.33;79325;1301;3011927;-68
2023/09/09 10:24:45;;;;;;;3.70;1.00;;;;;;;20.62;34.88;99536.32;78116;1298;3026682;-68
2023/09/09 10:27:12;;;;;;;7.40;1.10;;;;;;;19.94;35.10;99541.02;79411;1303;3012977;-68
2023/09/09 10:29:38;;;;;;;1.70;0.80;;;;;;;20.29;34.77;99546.04;79707;1297;3011423;-70
2023/09/09 21:06:18;;;;;;;13.60;4.10;;;;;;;12.52;52.20;100021.73;80383;1301;3013206;-69
2023/09/09 21:08:46;;;;;;;9.90;3.60;;;;;;;12.57;52.15;100010.52;79343;1302;3013047;-74
2023/09/09 21:11:15;;;;;;;11.30;3.20;;;;;;;12.54;52.33;100010.58;78225;1304;3026945;-72
2023/09/09 21:13:42;;;;;;;7.60;3.20;;;;;;;12.48;52.31;100011.63;79328;1304;3012896;-75
2023/09/09 21:16:08;;;;;;;7.90;3.50;;;;;;;12.38;52.78;100017.48;79343;1301;3013203;-73
2023/09/09 21:18:36;;;;;;;9.30;2.90;;;;;;;12.32;52.85;100019.44;75690;1303;3050446;-72
2023/09/09 21:21:03;;;;;;;6.40;2.90;;;;;;;12.35;52.81;100015.86;79631;1299;3012858;-70
2023/09/09 21:23:36;;;;;;;6.70;3.20;;;;;;;12.37;52.71;100016.46;79538;1295;3013150;-71
2023/09/09 21:26:04;;;;;;;9.90;3.80;;;;;;;12.31;53.12;100019.67;78506;1296;3048951;-73
2023/09/09 21:28:31;;;;;;;8.80;3.30;;;;;;;12.30;53.10;100020.22;79698;1298;3013501;-68
2023/09/09 21:31:03;;;;;;;7.60;4.30;;;;;;;12.22;53.38;100020.33;79155;1298;3012438;-70
2023/09/09 21:33:33;;;;;;;9.70;3.50;;;;;;;12.18;53.32;100019.70;79677;1295;3013506;-71
2023/09/09 21:36:02;;;;;;;5.90;3.50;;;;;;;12.09;53.65;100018.27;79227;1298;3013605;-66
2023/09/09 21:38:29;;;;;;;8.60;3.50;;;;;;;12.02;53.95;100023.27;79873;1298;3013508;-70
